sensor_id;sensor_type;location;lat;lon;timestamp;P1;P2;P0
47810;PMS5003;33575;52.600;7.318;2023-04-04T00:02:00;16;15;
47810;PMS5003;33575;52.600;7.318;2023-04-04T00:04:31;15;15;
47810;PMS5003;33575;52.600;7.318;2023-04-04T00:07:01;14;13;
47810;PMS5003;33575;52.600;7.318;2023-04-04T00:09:31;13;13;
47810;PMS5003;33575;52.600;7.318;2023-04-04T00:12:02;18;14;
47810;PMS5003;33575;52.600;7.318;2023-04-04T00:14:33;14;14;
47810;PMS5003;33575;52.600;7.318;2023-04-04T00:17:03;16;15;
47810;PMS5003;33575;52.600;7.318;2023-04-04T00:19:34;15;13;
47810;PMS5003;33575;52.600;7.318;2023-04-04T00:22:05;13;13;
47810;PMS5003;33575;52.600;7.318;2023-04-04T00:24:36;11;11;
47810;PMS5003;33575;52.600;7.318;2023-04-04T00:27:07;13;11;
47810;PMS5003;33575;52.600;7.318;2023-04-04T00:29:38;13;11;
47810;PMS5003;33575;52.600;7.318;2023-04-04T00:32:09;13;12;
47810;PMS5003;33575;52.600;7.318;2023-04-04T00:34:40;15;15;
47810;PMS5003;33575;52.600;7.318;2023-04-04T00:37:11;12;12;
47810;PMS5003;33575;52.600;7.318;2023-04-04T00:39:42;13;12;
47810;PMS5003;33575;52.600;7.318;2023-04-04T00:42:12;13;13;
47810;PMS5003;33575;52.600;7.318;2023-04-04T00:44:42;10;9;
47810;PMS5003;33575;52.600;7.318;2023-04-04T00:47:12;10;8;
47810;PMS5003;33575;52.600;7.318;2023-04-04T00:49:43;10;10;
47810;PMS5003;33575;52.600;7.318;2023-04-04T00:52:12;11;10;
47810;PMS5003;33575;52.600;7.318;2023-04-04T00:54:42;14;13;
47810;PMS5003;33575;52.600;7.318;2023-04-04T00:57:13;11;10;
47810;PMS5003;33575;52.600;7.318;2023-04-04T00:59:44;14;13;
47810;PMS5003;33575;52.600;7.318;2023-04-04T01:02:15;15;12;
47810;PMS5003;33575;52.600;7.318;2023-04-04T01:04:46;10;9;
47810;PMS5003;33575;52.600;7.318;2023-04-04T01:07:16;13;11;
47810;PMS5003;33575;52.600;7.318;2023-04-04T01:09:46;12;12;
47810;PMS5003;33575;52.600;7.318;2023-04-04T01:12:16;14;12;
47810;PMS5003;33575;52.600;7.318;2023-04-04T01:14:47;14;13;
47810;PMS5003;33575;52.600;7.318;2023-04-04T01:17:17;12;12;
47810;PMS5003;33575;52.600;7.318;2023-04-04T01:19:48;11;10;
47810;PMS5003;33575;52.600;7.318;2023-04-04T01:22:17;12;10;
47810;PMS5003;33575;52.600;7.318;2023-04-04T01:24:47;13;13;
47810;PMS5003;33575;52.600;7.318;2023-04-04T01:27:17;10;10;
47810;PMS5003;33575;52.600;7.318;2023-04-04T01:29:47;11;11;
47810;PMS5003;33575;52.600;7.318;2023-04-04T01:32:19;12;11;
47810;PMS5003;33575;52.600;7.318;2023-04-04T01:34:49;13;11;
47810;PMS5003;33575;52.600;7.318;2023-04-04T01:37:19;11;10;
47810;PMS5003;33575;52.600;7.318;2023-04-04T01:39:50;11;11;
47810;PMS5003;33575;52.600;7.318;2023-04-04T01:42:19;11;10;
47810;PMS5003;33575;52.600;7.318;2023-04-04T01:44:53;11;10;
47810;PMS5003;33575;52.600;7.318;2023-04-04T01:47:21;10;10;
47810;PMS5003;33575;52.600;7.318;2023-04-04T01:49:52;10;10;
47810;PMS5003;33575;52.600;7.318;2023-04-04T01:52:22;11;10;
47810;PMS5003;33575;52.600;7.318;2023-04-04T01:54:53;11;11;
47810;PMS5003;33575;52.600;7.318;2023-04-04T01:57:23;13;10;
47810;PMS5003;33575;52.600;7.318;2023-04-04T01:59:53;12;11;
47810;PMS5003;33575;52.600;7.318;2023-04-04T02:02:24;10;10;
47810;PMS5003;33575;52.600;7.318;2023-04-04T02:04:54;10;9;
47810;PMS5003;33575;52.600;7.318;2023-04-04T02:07:24;11;10;
47810;PMS5003;33575;52.600;7.318;2023-04-04T02:09:54;10;10;
47810;PMS5003;33575;52.600;7.318;2023-04-04T02:12:24;11;11;
47810;PMS5003;33575;52.600;7.318;2023-04-04T02:14:54;8;8;
47810;PMS5003;33575;52.600;7.318;2023-04-04T02:17:24;10;9;
47810;PMS5003;33575;52.600;7.318;2023-04-04T02:19:54;13;11;
47810;PMS5003;33575;52.600;7.318;2023-04-04T02:22:25;11;10;
47810;PMS5003;33575;52.600;7.318;2023-04-04T02:24:55;9;9;
47810;PMS5003;33575;52.600;7.318;2023-04-04T02:27:25;10;10;
47810;PMS5003;33575;52.600;7.318;2023-04-04T02:29:55;11;11;
47810;PMS5003;33575;52.600;7.318;2023-04-04T02:32:25;10;8;
47810;PMS5003;33575;52.600;7.318;2023-04-04T02:34:55;9;9;
47810;PMS5003;33575;52.600;7.318;2023-04-04T02:37:25;9;9;
47810;PMS5003;33575;52.600;7.318;2023-04-04T02:39:56;12;11;
47810;PMS5003;33575;52.600;7.318;2023-04-04T02:42:26;12;12;
47810;PMS5003;33575;52.600;7.318;2023-04-04T02:44:56;10;8;
47810;PMS5003;33575;52.600;7.318;2023-04-04T02:47:27;12;10;
47810;PMS5003;33575;52.600;7.318;2023-04-04T02:49:56;12;11;
47810;PMS5003;33575;52.600;7.318;2023-04-04T02:52:26;10;10;
47810;PMS5003;33575;52.600;7.318;2023-04-04T02:54:56;10;9;
47810;PMS5003;33575;52.600;7.318;2023-04-04T02:57:26;11;11;
47810;PMS5003;33575;52.600;7.318;2023-04-04T02:59:57;12;11;
47810;PMS5003;33575;52.600;7.318;2023-04-04T03:02:27;10;10;
47810;PMS5003;33575;52.600;7.318;2023-04-04T03:04:57;10;10;
47810;PMS5003;33575;52.600;7.318;2023-04-04T03:07:27;10;10;
47810;PMS5003;33575;52.600;7.318;2023-04-04T03:09:57;11;10;
47810;PMS5003;33575;52.600;7.318;2023-04-04T03:12:28;10;9;
47810;PMS5003;33575;52.600;7.318;2023-04-04T03:14:58;13;10;
47810;PMS5003;33575;52.600;7.318;2023-04-04T03:17:28;9;9;
47810;PMS5003;33575;52.600;7.318;2023-04-04T03:19:58;11;11;
47810;PMS5003;33575;52.600;7.318;2023-04-04T03:22:28;13;12;
47810;PMS5003;33575;52.600;7.318;2023-04-04T03:24:58;12;11;
47810;PMS5003;33575;52.600;7.318;2023-04-04T03:27:29;13;13;
47810;PMS5003;33575;52.600;7.318;2023-04-04T03:29:59;9;9;
47810;PMS5003;33575;52.600;7.318;2023-04-04T03:32:29;11;10;
47810;PMS5003;33575;52.600;7.318;2023-04-04T03:34:59;12;12;
47810;PMS5003;33575;52.600;7.318;2023-04-04T03:37:29;12;12;
47810;PMS5003;33575;52.600;7.318;2023-04-04T03:40:00;16;14;
47810;PMS5003;33575;52.600;7.318;2023-04-04T03:42:31;12;12;
47810;PMS5003;33575;52.600;7.318;2023-04-04T03:45:00;14;12;
47810;PMS5003;33575;52.600;7.318;2023-04-04T03:47:30;14;12;
47810;PMS5003;33575;52.600;7.318;2023-04-04T03:50:00;15;14;
47810;PMS5003;33575;52.600;7.318;2023-04-04T03:52:30;15;14;
47810;PMS5003;33575;52.600;7.318;2023-04-04T03:55:00;14;14;
47810;PMS5003;33575;52.600;7.318;2023-04-04T03:57:30;13;11;
47810;PMS5003;33575;52.600;7.318;2023-04-04T04:00:01;16;16;
47810;PMS5003;33575;52.600;7.318;2023-04-04T04:02:31;15;15;
47810;PMS5003;33575;52.600;7.318;2023-04-04T04:05:01;13;13;
47810;PMS5003;33575;52.600;7.318;2023-04-04T04:07:31;13;13;
47810;PMS5003;33575;52.600;7.318;2023-04-04T04:10:02;14;13;
47810;PMS5003;33575;52.600;7.318;2023-04-04T04:12:32;14;14;
47810;PMS5003;33575;52.600;7.318;2023-04-04T04:15:03;13;13;
47810;PMS5003;33575;52.600;7.318;2023-04-04T04:17:33;12;12;
47810;PMS5003;33575;52.600;7.318;2023-04-04T04:20:04;14;13;
47810;PMS5003;33575;52.600;7.318;2023-04-04T04:22:33;14;13;
47810;PMS5003;33575;52.600;7.318;2023-04-04T04:25:04;16;16;
47810;PMS5003;33575;52.600;7.318;2023-04-04T04:27:34;15;14;
47810;PMS5003;33575;52.600;7.318;2023-04-04T04:30:05;15;15;
47810;PMS5003;33575;52.600;7.318;2023-04-04T04:32:34;16;14;
47810;PMS5003;33575;52.600;7.318;2023-04-04T04:35:06;15;13;
47810;PMS5003;33575;52.600;7.318;2023-04-04T04:37:35;15;14;
47810;PMS5003;33575;52.600;7.318;2023-04-04T04:40:06;14;14;
47810;PMS5003;33575;52.600;7.318;2023-04-04T04:42:35;16;16;
47810;PMS5003;33575;52.600;7.318;2023-04-04T04:45:06;17;13;
47810;PMS5003;33575;52.600;7.318;2023-04-04T04:47:36;14;14;
47810;PMS5003;33575;52.600;7.318;2023-04-04T04:50:07;15;15;
47810;PMS5003;33575;52.600;7.318;2023-04-04T04:52:37;17;15;
47810;PMS5003;33575;52.600;7.318;2023-04-04T04:55:08;15;15;
47810;PMS5003;33575;52.600;7.318;2023-04-04T04:57:38;13;13;
47810;PMS5003;33575;52.600;7.318;2023-04-04T05:00:09;15;12;
47810;PMS5003;33575;52.600;7.318;2023-04-04T05:02:39;11;10;
47810;PMS5003;33575;52.600;7.318;2023-04-04T05:05:08;14;12;
47810;PMS5003;33575;52.600;7.318;2023-04-04T05:07:43;13;11;
47810;PMS5003;33575;52.600;7.318;2023-04-04T05:10:09;12;12;
47810;PMS5003;33575;52.600;7.318;2023-04-04T05:12:40;12;12;
47810;PMS5003;33575;52.600;7.318;2023-04-04T05:15:10;13;12;
47810;PMS5003;33575;52.600;7.318;2023-04-04T05:17:40;14;11;
47810;PMS5003;33575;52.600;7.318;2023-04-04T05:20:10;13;12;
47810;PMS5003;33575;52.600;7.318;2023-04-04T05:22:41;10;10;
47810;PMS5003;33575;52.600;7.318;2023-04-04T05:25:10;13;12;
47810;PMS5003;33575;52.600;7.318;2023-04-04T05:27:40;14;12;
47810;PMS5003;33575;52.600;7.318;2023-04-04T05:30:11;12;11;
47810;PMS5003;33575;52.600;7.318;2023-04-04T05:32:41;12;12;
47810;PMS5003;33575;52.600;7.318;2023-04-04T05:35:11;11;10;
47810;PMS5003;33575;52.600;7.318;2023-04-04T05:37:41;13;11;
47810;PMS5003;33575;52.600;7.318;2023-04-04T05:40:11;12;9;
47810;PMS5003;33575;52.600;7.318;2023-04-04T05:42:41;11;9;
47810;PMS5003;33575;52.600;7.318;2023-04-04T05:45:12;10;10;
47810;PMS5003;33575;52.600;7.318;2023-04-04T05:47:42;11;11;
47810;PMS5003;33575;52.600;7.318;2023-04-04T05:50:13;12;12;
47810;PMS5003;33575;52.600;7.318;2023-04-04T05:52:43;12;12;
47810;PMS5003;33575;52.600;7.318;2023-04-04T05:55:13;15;13;
47810;PMS5003;33575;52.600;7.318;2023-04-04T05:57:47;15;14;
47810;PMS5003;33575;52.600;7.318;2023-04-04T06:00:13;10;10;
47810;PMS5003;33575;52.600;7.318;2023-04-04T06:02:43;12;12;
47810;PMS5003;33575;52.600;7.318;2023-04-04T06:05:13;12;11;
47810;PMS5003;33575;52.600;7.318;2023-04-04T06:07:44;15;14;
47810;PMS5003;33575;52.600;7.318;2023-04-04T06:10:14;13;12;
47810;PMS5003;33575;52.600;7.318;2023-04-04T06:12:44;9;9;
47810;PMS5003;33575;52.600;7.318;2023-04-04T06:15:15;12;12;
47810;PMS5003;33575;52.600;7.318;2023-04-04T06:17:45;8;8;
47810;PMS5003;33575;52.600;7.318;2023-04-04T06:20:16;8;8;
47810;PMS5003;33575;52.600;7.318;2023-04-04T06:22:46;11;9;
47810;PMS5003;33575;52.600;7.318;2023-04-04T06:25:16;10;9;
47810;PMS5003;33575;52.600;7.318;2023-04-04T06:27:46;11;10;
47810;PMS5003;33575;52.600;7.318;2023-04-04T06:30:17;12;10;
47810;PMS5003;33575;52.600;7.318;2023-04-04T06:32:47;10;8;
47810;PMS5003;33575;52.600;7.318;2023-04-04T06:35:20;12;10;
47810;PMS5003;33575;52.600;7.318;2023-04-04T06:37:51;15;12;
47810;PMS5003;33575;52.600;7.318;2023-04-04T06:40:17;14;12;
47810;PMS5003;33575;52.600;7.318;2023-04-04T06:42:47;12;12;
47810;PMS5003;33575;52.600;7.318;2023-04-04T06:45:18;14;13;
47810;PMS5003;33575;52.600;7.318;2023-04-04T06:47:48;12;12;
47810;PMS5003;33575;52.600;7.318;2023-04-04T06:50:19;11;10;
47810;PMS5003;33575;52.600;7.318;2023-04-04T06:52:49;11;10;
47810;PMS5003;33575;52.600;7.318;2023-04-04T06:55:19;9;9;
47810;PMS5003;33575;52.600;7.318;2023-04-04T06:57:49;11;10;
47810;PMS5003;33575;52.600;7.318;2023-04-04T07:00:20;10;10;
47810;PMS5003;33575;52.600;7.318;2023-04-04T07:05:20;11;10;
47810;PMS5003;33575;52.600;7.318;2023-04-04T07:07:50;12;10;
47810;PMS5003;33575;52.600;7.318;2023-04-04T07:10:20;11;10;
47810;PMS5003;33575;52.600;7.318;2023-04-04T07:12:50;12;10;
47810;PMS5003;33575;52.600;7.318;2023-04-04T07:15:20;11;10;
47810;PMS5003;33575;52.600;7.318;2023-04-04T07:17:50;11;9;
47810;PMS5003;33575;52.600;7.318;2023-04-04T07:20:20;13;9;
47810;PMS5003;33575;52.600;7.318;2023-04-04T07:22:50;9;9;
47810;PMS5003;33575;52.600;7.318;2023-04-04T07:25:20;12;11;
47810;PMS5003;33575;52.600;7.318;2023-04-04T07:27:55;9;9;
47810;PMS5003;33575;52.600;7.318;2023-04-04T07:30:21;16;12;
47810;PMS5003;33575;52.600;7.318;2023-04-04T07:32:55;12;11;
47810;PMS5003;33575;52.600;7.318;2023-04-04T07:35:21;10;10;
47810;PMS5003;33575;52.600;7.318;2023-04-04T07:37:51;10;10;
47810;PMS5003;33575;52.600;7.318;2023-04-04T07:40:21;10;10;
47810;PMS5003;33575;52.600;7.318;2023-04-04T07:42:51;9;9;
47810;PMS5003;33575;52.600;7.318;2023-04-04T07:45:21;9;9;
47810;PMS5003;33575;52.600;7.318;2023-04-04T07:47:51;12;10;
47810;PMS5003;33575;52.600;7.318;2023-04-04T07:50:21;9;7;
47810;PMS5003;33575;52.600;7.318;2023-04-04T07:52:51;9;9;
47810;PMS5003;33575;52.600;7.318;2023-04-04T07:55:22;11;10;
47810;PMS5003;33575;52.600;7.318;2023-04-04T07:57:53;8;8;
47810;PMS5003;33575;52.600;7.318;2023-04-04T08:00:24;11;10;
47810;PMS5003;33575;52.600;7.318;2023-04-04T08:02:55;8;8;
47810;PMS5003;33575;52.600;7.318;2023-04-04T08:05:24;9;8;
47810;PMS5003;33575;52.600;7.318;2023-04-04T08:07:54;11;11;
47810;PMS5003;33575;52.600;7.318;2023-04-04T08:10:24;6;6;
47810;PMS5003;33575;52.600;7.318;2023-04-04T08:12:54;8;7;
47810;PMS5003;33575;52.600;7.318;2023-04-04T08:15:25;9;7;
47810;PMS5003;33575;52.600;7.318;2023-04-04T08:17:56;10;9;
47810;PMS5003;33575;52.600;7.318;2023-04-04T08:20:27;8;8;
47810;PMS5003;33575;52.600;7.318;2023-04-04T08:22:58;9;8;
47810;PMS5003;33575;52.600;7.318;2023-04-04T08:25:29;10;10;
47810;PMS5003;33575;52.600;7.318;2023-04-04T08:28:00;11;8;
47810;PMS5003;33575;52.600;7.318;2023-04-04T08:30:30;8;8;
47810;PMS5003;33575;52.600;7.318;2023-04-04T08:33:04;8;8;
47810;PMS5003;33575;52.600;7.318;2023-04-04T08:35:32;7;7;
47810;PMS5003;33575;52.600;7.318;2023-04-04T08:38:03;9;9;
47810;PMS5003;33575;52.600;7.318;2023-04-04T08:40:35;10;7;
47810;PMS5003;33575;52.600;7.318;2023-04-04T08:43:05;9;9;
47810;PMS5003;33575;52.600;7.318;2023-04-04T08:45:36;6;6;
47810;PMS5003;33575;52.600;7.318;2023-04-04T08:48:06;8;7;
47810;PMS5003;33575;52.600;7.318;2023-04-04T08:50:38;7;7;
47810;PMS5003;33575;52.600;7.318;2023-04-04T08:53:09;11;9;
47810;PMS5003;33575;52.600;7.318;2023-04-04T08:55:39;8;8;
47810;PMS5003;33575;52.600;7.318;2023-04-04T08:58:10;6;6;
47810;PMS5003;33575;52.600;7.318;2023-04-04T09:00:41;6;6;
47810;PMS5003;33575;52.600;7.318;2023-04-04T09:03:13;7;6;
47810;PMS5003;33575;52.600;7.318;2023-04-04T09:05:42;6;5;
47810;PMS5003;33575;52.600;7.318;2023-04-04T09:08:13;8;7;
47810;PMS5003;33575;52.600;7.318;2023-04-04T09:10:44;5;5;
47810;PMS5003;33575;52.600;7.318;2023-04-04T09:13:17;4;4;
47810;PMS5003;33575;52.600;7.318;2023-04-04T09:15:46;5;5;
47810;PMS5003;33575;52.600;7.318;2023-04-04T09:18:17;5;4;
47810;PMS5003;33575;52.600;7.318;2023-04-04T09:20:48;4;3;
47810;PMS5003;33575;52.600;7.318;2023-04-04T09:23:18;4;4;
47810;PMS5003;33575;52.600;7.318;2023-04-04T09:25:54;5;5;
47810;PMS5003;33575;52.600;7.318;2023-04-04T09:28:20;3;3;
47810;PMS5003;33575;52.600;7.318;2023-04-04T09:30:51;4;4;
47810;PMS5003;33575;52.600;7.318;2023-04-04T09:33:22;3;2;
47810;PMS5003;33575;52.600;7.318;2023-04-04T09:35:54;5;4;
47810;PMS5003;33575;52.600;7.318;2023-04-04T09:38:23;4;4;
47810;PMS5003;33575;52.600;7.318;2023-04-04T09:40:54;3;3;
47810;PMS5003;33575;52.600;7.318;2023-04-04T09:43:25;5;5;
47810;PMS5003;33575;52.600;7.318;2023-04-04T09:45:55;4;4;
47810;PMS5003;33575;52.600;7.318;2023-04-04T09:48:26;7;6;
47810;PMS5003;33575;52.600;7.318;2023-04-04T09:50:57;4;4;
47810;PMS5003;33575;52.600;7.318;2023-04-04T09:53:27;7;7;
47810;PMS5003;33575;52.600;7.318;2023-04-04T09:55:58;7;7;
47810;PMS5003;33575;52.600;7.318;2023-04-04T09:58:29;5;5;
47810;PMS5003;33575;52.600;7.318;2023-04-04T10:01:00;4;4;
47810;PMS5003;33575;52.600;7.318;2023-04-04T10:03:30;4;4;
47810;PMS5003;33575;52.600;7.318;2023-04-04T10:06:01;4;4;
47810;PMS5003;33575;52.600;7.318;2023-04-04T10:08:32;7;7;
47810;PMS5003;33575;52.600;7.318;2023-04-04T10:11:07;5;4;
47810;PMS5003;33575;52.600;7.318;2023-04-04T10:13:34;7;7;
47810;PMS5003;33575;52.600;7.318;2023-04-04T10:16:04;5;5;
47810;PMS5003;33575;52.600;7.318;2023-04-04T10:18:35;5;5;
47810;PMS5003;33575;52.600;7.318;2023-04-04T10:21:10;3;3;
47810;PMS5003;33575;52.600;7.318;2023-04-04T10:23:36;5;5;
47810;PMS5003;33575;52.600;7.318;2023-04-04T10:26:07;5;5;
47810;PMS5003;33575;52.600;7.318;2023-04-04T10:28:37;3;3;
47810;PMS5003;33575;52.600;7.318;2023-04-04T10:31:11;5;4;
47810;PMS5003;33575;52.600;7.318;2023-04-04T10:33:41;5;4;
47810;PMS5003;33575;52.600;7.318;2023-04-04T10:36:10;4;4;
47810;PMS5003;33575;52.600;7.318;2023-04-04T10:38:41;4;4;
47810;PMS5003;33575;52.600;7.318;2023-04-04T10:41:11;4;4;
47810;PMS5003;33575;52.600;7.318;2023-04-04T10:43:41;3;3;
47810;PMS5003;33575;52.600;7.318;2023-04-04T10:46:12;4;3;
47810;PMS5003;33575;52.600;7.318;2023-04-04T10:48:43;6;6;
47810;PMS5003;33575;52.600;7.318;2023-04-04T10:51:13;5;5;
47810;PMS5003;33575;52.600;7.318;2023-04-04T10:53:44;5;5;
47810;PMS5003;33575;52.600;7.318;2023-04-04T10:56:15;7;5;
47810;PMS5003;33575;52.600;7.318;2023-04-04T10:58:45;10;10;
47810;PMS5003;33575;52.600;7.318;2023-04-04T11:01:16;5;4;
47810;PMS5003;33575;52.600;7.318;2023-04-04T11:06:17;7;7;
47810;PMS5003;33575;52.600;7.318;2023-04-04T11:08:52;6;6;
47810;PMS5003;33575;52.600;7.318;2023-04-04T11:11:23;9;8;
47810;PMS5003;33575;52.600;7.318;2023-04-04T11:16:20;6;6;
47810;PMS5003;33575;52.600;7.318;2023-04-04T11:18:50;8;5;
47810;PMS5003;33575;52.600;7.318;2023-04-04T11:21:21;4;4;
47810;PMS5003;33575;52.600;7.318;2023-04-04T11:26:34;6;4;
47810;PMS5003;33575;52.600;7.318;2023-04-04T11:28:54;4;4;
47810;PMS5003;33575;52.600;7.318;2023-04-04T11:31:25;5;4;
47810;PMS5003;33575;52.600;7.318;2023-04-04T11:33:56;4;4;
47810;PMS5003;33575;52.600;7.318;2023-04-04T11:38:56;6;6;
47810;PMS5003;33575;52.600;7.318;2023-04-04T11:43:57;7;6;
47810;PMS5003;33575;52.600;7.318;2023-04-04T11:46:28;6;5;
47810;PMS5003;33575;52.600;7.318;2023-04-04T11:48:58;9;6;
47810;PMS5003;33575;52.600;7.318;2023-04-04T11:51:29;4;4;
47810;PMS5003;33575;52.600;7.318;2023-04-04T11:53:59;5;5;
47810;PMS5003;33575;52.600;7.318;2023-04-04T11:56:32;8;6;
47810;PMS5003;33575;52.600;7.318;2023-04-04T11:59:05;8;7;
47810;PMS5003;33575;52.600;7.318;2023-04-04T12:01:31;8;7;
47810;PMS5003;33575;52.600;7.318;2023-04-04T12:04:02;6;5;
47810;PMS5003;33575;52.600;7.318;2023-04-04T12:06:32;5;5;
47810;PMS5003;33575;52.600;7.318;2023-04-04T12:09:04;5;5;
47810;PMS5003;33575;52.600;7.318;2023-04-04T12:11:34;5;5;
47810;PMS5003;33575;52.600;7.318;2023-04-04T12:14:04;5;5;
47810;PMS5003;33575;52.600;7.318;2023-04-04T12:16:35;5;5;
47810;PMS5003;33575;52.600;7.318;2023-04-04T12:19:05;8;7;
47810;PMS5003;33575;52.600;7.318;2023-04-04T12:21:36;6;5;
47810;PMS5003;33575;52.600;7.318;2023-04-04T12:24:07;5;5;
47810;PMS5003;33575;52.600;7.318;2023-04-04T12:26:38;5;5;
47810;PMS5003;33575;52.600;7.318;2023-04-04T12:29:08;5;5;
47810;PMS5003;33575;52.600;7.318;2023-04-04T12:31:40;4;4;
47810;PMS5003;33575;52.600;7.318;2023-04-04T12:36:40;6;6;
47810;PMS5003;33575;52.600;7.318;2023-04-04T12:39:10;6;6;
47810;PMS5003;33575;52.600;7.318;2023-04-04T12:44:23;9;8;
47810;PMS5003;33575;52.600;7.318;2023-04-04T12:46:42;31;26;
47810;PMS5003;33575;52.600;7.318;2023-04-04T12:49:13;8;7;
47810;PMS5003;33575;52.600;7.318;2023-04-04T12:51:44;8;7;
47810;PMS5003;33575;52.600;7.318;2023-04-04T12:56:45;9;7;
47810;PMS5003;33575;52.600;7.318;2023-04-04T12:59:20;4;4;
47810;PMS5003;33575;52.600;7.318;2023-04-04T13:01:46;4;4;
47810;PMS5003;33575;52.600;7.318;2023-04-04T13:04:17;5;4;
47810;PMS5003;33575;52.600;7.318;2023-04-04T13:06:48;6;6;
47810;PMS5003;33575;52.600;7.318;2023-04-04T13:09:19;6;5;
47810;PMS5003;33575;52.600;7.318;2023-04-04T13:14:19;7;7;
47810;PMS5003;33575;52.600;7.318;2023-04-04T13:19:21;4;4;
47810;PMS5003;33575;52.600;7.318;2023-04-04T13:21:51;4;4;
47810;PMS5003;33575;52.600;7.318;2023-04-04T13:24:22;6;6;
47810;PMS5003;33575;52.600;7.318;2023-04-04T13:26:52;8;8;
47810;PMS5003;33575;52.600;7.318;2023-04-04T13:29:23;5;5;
47810;PMS5003;33575;52.600;7.318;2023-04-04T13:31:54;7;7;
47810;PMS5003;33575;52.600;7.318;2023-04-04T13:34:25;7;7;
47810;PMS5003;33575;52.600;7.318;2023-04-04T13:36:55;5;5;
47810;PMS5003;33575;52.600;7.318;2023-04-04T13:39:25;8;6;
47810;PMS5003;33575;52.600;7.318;2023-04-04T13:41:56;9;7;
47810;PMS5003;33575;52.600;7.318;2023-04-04T13:44:27;8;7;
47810;PMS5003;33575;52.600;7.318;2023-04-04T13:46:57;7;7;
47810;PMS5003;33575;52.600;7.318;2023-04-04T13:49:28;6;6;
47810;PMS5003;33575;52.600;7.318;2023-04-04T13:51:58;6;4;
47810;PMS5003;33575;52.600;7.318;2023-04-04T13:54:29;5;5;
47810;PMS5003;33575;52.600;7.318;2023-04-04T13:56:59;5;5;
47810;PMS5003;33575;52.600;7.318;2023-04-04T13:59:30;6;6;
47810;PMS5003;33575;52.600;7.318;2023-04-04T14:02:01;6;6;
47810;PMS5003;33575;52.600;7.318;2023-04-04T14:04:31;6;6;
47810;PMS5003;33575;52.600;7.318;2023-04-04T14:07:02;7;7;
47810;PMS5003;33575;52.600;7.318;2023-04-04T14:09:32;8;7;
47810;PMS5003;33575;52.600;7.318;2023-04-04T14:12:03;8;7;
47810;PMS5003;33575;52.600;7.318;2023-04-04T14:14:38;8;7;
47810;PMS5003;33575;52.600;7.318;2023-04-04T14:17:04;8;6;
47810;PMS5003;33575;52.600;7.318;2023-04-04T14:19:36;5;5;
47810;PMS5003;33575;52.600;7.318;2023-04-04T14:22:05;7;7;
47810;PMS5003;33575;52.600;7.318;2023-04-04T14:24:36;8;8;
47810;PMS5003;33575;52.600;7.318;2023-04-04T14:27:06;12;11;
47810;PMS5003;33575;52.600;7.318;2023-04-04T14:29:37;10;9;
47810;PMS5003;33575;52.600;7.318;2023-04-04T14:32:08;8;7;
47810;PMS5003;33575;52.600;7.318;2023-04-04T14:34:38;7;7;
47810;PMS5003;33575;52.600;7.318;2023-04-04T14:37:09;7;7;
47810;PMS5003;33575;52.600;7.318;2023-04-04T14:39:40;7;6;
47810;PMS5003;33575;52.600;7.318;2023-04-04T14:42:10;7;7;
47810;PMS5003;33575;52.600;7.318;2023-04-04T14:44:41;6;6;
47810;PMS5003;33575;52.600;7.318;2023-04-04T14:47:11;8;8;
47810;PMS5003;33575;52.600;7.318;2023-04-04T14:49:42;8;8;
47810;PMS5003;33575;52.600;7.318;2023-04-04T14:52:13;7;7;
47810;PMS5003;33575;52.600;7.318;2023-04-04T14:54:43;6;6;
47810;PMS5003;33575;52.600;7.318;2023-04-04T14:57:14;11;7;
47810;PMS5003;33575;52.600;7.318;2023-04-04T14:59:45;8;8;
47810;PMS5003;33575;52.600;7.318;2023-04-04T15:02:15;7;7;
47810;PMS5003;33575;52.600;7.318;2023-04-04T15:04:45;21;17;
47810;PMS5003;33575;52.600;7.318;2023-04-04T15:07:16;10;10;
47810;PMS5003;33575;52.600;7.318;2023-04-04T15:09:47;7;7;
47810;PMS5003;33575;52.600;7.318;2023-04-04T15:12:17;7;7;
47810;PMS5003;33575;52.600;7.318;2023-04-04T15:14:48;7;6;
47810;PMS5003;33575;52.600;7.318;2023-04-04T15:17:18;6;6;
47810;PMS5003;33575;52.600;7.318;2023-04-04T15:19:49;7;6;
47810;PMS5003;33575;52.600;7.318;2023-04-04T15:22:19;7;7;
47810;PMS5003;33575;52.600;7.318;2023-04-04T15:24:50;8;8;
47810;PMS5003;33575;52.600;7.318;2023-04-04T15:27:20;7;7;
47810;PMS5003;33575;52.600;7.318;2023-04-04T15:29:51;8;6;
47810;PMS5003;33575;52.600;7.318;2023-04-04T15:32:22;11;10;
47810;PMS5003;33575;52.600;7.318;2023-04-04T15:34:52;9;9;
47810;PMS5003;33575;52.600;7.318;2023-04-04T15:37:23;8;7;
47810;PMS5003;33575;52.600;7.318;2023-04-04T15:39:55;8;8;
47810;PMS5003;33575;52.600;7.318;2023-04-04T15:42:24;8;8;
47810;PMS5003;33575;52.600;7.318;2023-04-04T15:44:55;10;10;
47810;PMS5003;33575;52.600;7.318;2023-04-04T15:47:25;7;6;
47810;PMS5003;33575;52.600;7.318;2023-04-04T15:49:56;9;9;
47810;PMS5003;33575;52.600;7.318;2023-04-04T15:52:26;11;8;
47810;PMS5003;33575;52.600;7.318;2023-04-04T15:54:57;8;7;
47810;PMS5003;33575;52.600;7.318;2023-04-04T15:57:27;10;9;
47810;PMS5003;33575;52.600;7.318;2023-04-04T15:59:58;8;8;
47810;PMS5003;33575;52.600;7.318;2023-04-04T16:02:29;12;12;
47810;PMS5003;33575;52.600;7.318;2023-04-04T16:04:59;8;7;
47810;PMS5003;33575;52.600;7.318;2023-04-04T16:07:30;5;5;
47810;PMS5003;33575;52.600;7.318;2023-04-04T16:10:00;9;9;
47810;PMS5003;33575;52.600;7.318;2023-04-04T16:12:31;9;8;
47810;PMS5003;33575;52.600;7.318;2023-04-04T16:15:02;10;9;
47810;PMS5003;33575;52.600;7.318;2023-04-04T16:17:33;7;7;
47810;PMS5003;33575;52.600;7.318;2023-04-04T16:20:03;8;8;
47810;PMS5003;33575;52.600;7.318;2023-04-04T16:22:33;9;9;
47810;PMS5003;33575;52.600;7.318;2023-04-04T16:25:04;13;13;
47810;PMS5003;33575;52.600;7.318;2023-04-04T16:27:35;11;11;
47810;PMS5003;33575;52.600;7.318;2023-04-04T16:30:06;12;10;
47810;PMS5003;33575;52.600;7.318;2023-04-04T16:32:36;12;12;
47810;PMS5003;33575;52.600;7.318;2023-04-04T16:35:07;9;8;
47810;PMS5003;33575;52.600;7.318;2023-04-04T16:37:37;8;8;
47810;PMS5003;33575;52.600;7.318;2023-04-04T16:40:08;9;9;
47810;PMS5003;33575;52.600;7.318;2023-04-04T16:42:38;9;9;
47810;PMS5003;33575;52.600;7.318;2023-04-04T16:45:09;10;9;
47810;PMS5003;33575;52.600;7.318;2023-04-04T16:47:39;11;10;
47810;PMS5003;33575;52.600;7.318;2023-04-04T16:50:10;12;10;
47810;PMS5003;33575;52.600;7.318;2023-04-04T16:52:42;10;8;
47810;PMS5003;33575;52.600;7.318;2023-04-04T16:55:11;9;9;
47810;PMS5003;33575;52.600;7.318;2023-04-04T16:57:41;13;13;
47810;PMS5003;33575;52.600;7.318;2023-04-04T17:00:12;12;12;
47810;PMS5003;33575;52.600;7.318;2023-04-04T17:02:42;13;12;
47810;PMS5003;33575;52.600;7.318;2023-04-04T17:05:13;11;8;
47810;PMS5003;33575;52.600;7.318;2023-04-04T17:07:44;13;13;
47810;PMS5003;33575;52.600;7.318;2023-04-04T17:10:14;13;13;
47810;PMS5003;33575;52.600;7.318;2023-04-04T17:12:45;12;12;
47810;PMS5003;33575;52.600;7.318;2023-04-04T17:15:18;11;11;
47810;PMS5003;33575;52.600;7.318;2023-04-04T17:17:46;19;18;
47810;PMS5003;33575;52.600;7.318;2023-04-04T17:20:17;16;16;
47810;PMS5003;33575;52.600;7.318;2023-04-04T17:22:47;10;10;